Home > Products > Valid Products > TAF

000
FTUS44 KBMX 281729
TAFANB
TAF
KANB 281729Z 2818/2918 09008KT P6SM BKN035
     FM290100 07003KT P6SM SCT250
      TEMPO 2908/2912 4SM BR=



000
FTUS44 KBMX 281729
TAFBHM
TAF
KBHM 281729Z 2818/2918 10009KT P6SM SCT040
     FM290100 12002KT P6SM SCT250=



000
FTUS44 KBMX 281729
TAFMGM
TAF
KMGM 281729Z 2818/2918 10010KT P6SM SCT060
     FM282200 10010KT P6SM VCTS BKN040CB
     FM290100 10003KT P6SM BKN250=



000
FTUS44 KBMX 281729
TAFTOI
TAF
KTOI 281729Z 2818/2918 10008KT P6SM SCT060
     FM282200 09008KT P6SM VCTS BKN040CB
     FM290100 00000KT P6SM BKN250=



000
FTUS44 KBMX 281729
TAFTCL
TAF
KTCL 281729Z 2818/2918 11008KT P6SM SCT050
     FM290100 11003KT P6SM SCT250=



000
FTUS44 KBMX 281729
TAFEET
TAF
KEET 281729Z 2818/2918 12008KT P6SM SCT040
     FM290100 00000KT P6SM SCT250=



000
FTUS44 KBMX 281559 AAA
TAFANB
TAF AMD
KANB 281559Z 2816/2912 11006KT P6SM BKN020
     FM281700 09008KT P6SM BKN035
     FM290100 07003KT P6SM SCT250
      TEMPO 2908/2912 4SM BR=



000
FTUS44 KBMX 281140
TAFBHM
TAF
KBHM 281140Z 2812/2912 05004KT P6SM SKC
     FM281500 10009KT P6SM SCT040
     FM290100 12002KT P6SM SCT250=



000
FTUS44 KBMX 281140
TAFTCL
TAF
KTCL 281140Z 2812/2912 00000KT 6SM BR SKC
      TEMPO 2812/2814 5SM BR
     FM281500 11008KT P6SM SCT050
     FM290100 11003KT P6SM SCT250=



000
FTUS44 KBMX 281140
TAFEET
TAF
KEET 281140Z 2812/2912 00000KT 6SM BR SKC
     FM281500 12008KT P6SM SCT040
     FM290100 00000KT P6SM SCT250=



000
FTUS44 KBMX 281140
TAFANB
TAF
KANB 281140Z 2812/2912 04003KT 6SM BR SCT013
      TEMPO 2812/2814 5SM BR BKN013
     FM281500 09008KT P6SM BKN035
     FM290100 07003KT P6SM SCT250
      TEMPO 2908/2912 4SM BR=



000
FTUS44 KBMX 281140
TAFTOI
TAF
KTOI 281140Z 2812/2912 10003KT 6SM BR SCT070
      TEMPO 2812/2814 5SM BR
     FM281500 10008KT P6SM SCT060
     FM282200 09008KT P6SM BKN040
     FM290100 00000KT P6SM BKN250=



000
FTUS44 KBMX 281140
TAFMGM
TAF
KMGM 281140Z 2812/2912 10003KT P6SM SCT070
     FM281500 10010KT P6SM SCT060
     FM282200 10010KT P6SM BKN040
     FM290100 10003KT P6SM BKN250=



000
FTUS44 KBMX 281140
TAFTOI
TAF
KTOI 281140Z 2812/2912 10003KT 6SM BR SCT070
      TEMPO 2812/2814 5SM BR
     FM281500 10008KT P6SM SCT060
     FM282200 09008KT P6SM BKN040
     FM290100 00000KT P6SM BKN250=



000
FTUS44 KBMX 281140
TAFBHM
TAF
KBHM 281140Z 2812/2912 05004KT P6SM SKC
     FM281500 10009KT P6SM SCT040
     FM290100 12002KT P6SM SCT250=



000
FTUS44 KBMX 281140
TAFTCL
TAF
KTCL 281140Z 2812/2912 00000KT 6SM BR SKC
      TEMPO 2812/2814 5SM BR
     FM281500 11008KT P6SM SCT050
     FM290100 11003KT P6SM SCT250=



000
FTUS44 KBMX 281140
TAFANB
TAF
KANB 281140Z 2812/2912 04003KT 6SM BR SCT013
      TEMPO 2812/2814 5SM BR BKN013
     FM281500 09008KT P6SM BKN035
     FM290100 07003KT P6SM SCT250
      TEMPO 2908/2912 4SM BR=



000
FTUS44 KBMX 281140
TAFEET
TAF
KEET 281140Z 2812/2912 00000KT 6SM BR SKC
     FM281500 12008KT P6SM SCT040
     FM290100 00000KT P6SM SCT250=



000
FTUS44 KBMX 281140
TAFMGM
TAF
KMGM 281140Z 2812/2912 10003KT P6SM SCT070
     FM281500 10010KT P6SM SCT060
     FM282200 10010KT P6SM BKN040
     FM290100 10003KT P6SM BKN250=



000
FTUS44 KBMX 280520
TAFTOI
TAF
KTOI 280520Z 2806/2906 00000KT P6SM FEW060
     FM281500 10007KT P6SM SCT040
     FM282200 10005KT P6SM BKN040=



000
FTUS44 KBMX 280520
TAFTCL
TAF
KTCL 280520Z 2806/2906 00000KT P6SM FEW060
     FM281500 11006KT P6SM SCT040=



000
FTUS44 KBMX 280520
TAFEET
TAF
KEET 280520Z 2806/2906 00000KT P6SM FEW060
     FM281500 12007KT P6SM SCT040=



000
FTUS44 KBMX 280520
TAFANB
TAF
KANB 280520Z 2806/2906 06003KT P6SM FEW060
      TEMPO 2811/2814 5SM BR
     FM281500 09007KT P6SM BKN040=



000
FTUS44 KBMX 280520
TAFBHM
TAF
KBHM 280520Z 2806/2906 00000KT P6SM FEW060
     FM281500 10008KT P6SM SCT040=



000
FTUS44 KBMX 280520
TAFMGM
TAF
KMGM 280520Z 2806/2906 04003KT P6SM FEW060
     FM281500 10007KT P6SM SCT040
     FM282200 10007KT P6SM BKN040=



000
FTUS44 KBMX 280520
TAFEET
TAF
KEET 280520Z 2806/2906 00000KT P6SM FEW060
     FM281500 12007KT P6SM SCT040=



000
FTUS44 KBMX 280520
TAFTCL
TAF
KTCL 280520Z 2806/2906 00000KT P6SM FEW060
     FM281500 11006KT P6SM SCT040=



000
FTUS44 KBMX 280520
TAFANB
TAF
KANB 280520Z 2806/2906 06003KT P6SM FEW060
      TEMPO 2811/2814 5SM BR
     FM281500 09007KT P6SM BKN040=



000
FTUS44 KBMX 280520
TAFBHM
TAF
KBHM 280520Z 2806/2906 00000KT P6SM FEW060
     FM281500 10008KT P6SM SCT040=



000
FTUS44 KBMX 280520
TAFMGM
TAF
KMGM 280520Z 2806/2906 04003KT P6SM FEW060
     FM281500 10007KT P6SM SCT040
     FM282200 10007KT P6SM BKN040=



000
FTUS44 KBMX 280520
TAFTOI
TAF
KTOI 280520Z 2806/2906 00000KT P6SM FEW060
     FM281500 10007KT P6SM SCT040
     FM282200 10005KT P6SM BKN040=



000
FTUS44 KBMX 272329
TAFEET
TAF
KEET 272329Z 2800/2824 35007KT P6SM SCT060
     FM280100 00000KT P6SM FEW060
     FM281500 12007KT P6SM SCT040=



000
FTUS44 KBMX 272329
TAFANB
TAF
KANB 272329Z 2800/2824 06004KT P6SM SCT060
      TEMPO 2808/2812 4SM BR SCT010
     FM281500 08007KT P6SM SCT040=



000
FTUS44 KBMX 272329
TAFTOI
TAF
KTOI 272329Z 2800/2824 05003KT P6SM FEW060
     FM281500 12007KT P6SM SCT040=



000
FTUS44 KBMX 272329
TAFTCL
TAF
KTCL 272329Z 2800/2824 03005KT P6SM FEW060
     FM281500 11006KT P6SM SCT040=



000
FTUS44 KBMX 272329
TAFBHM
TAF
KBHM 272329Z 2800/2824 34006KT P6SM SCT060
     FM280100 05003KT P6SM FEW060
     FM281500 10008KT P6SM SCT040=



000
FTUS44 KBMX 272329
TAFMGM
TAF
KMGM 272329Z 2800/2824 04004KT P6SM SCT060
     FM281500 11007KT P6SM SCT040=



000
FTUS44 KBMX 272329
TAFEET
TAF
KEET 272329Z 2800/2824 35007KT P6SM SCT060
     FM280100 00000KT P6SM FEW060
     FM281500 12007KT P6SM SCT040=



000
FTUS44 KBMX 272329
TAFANB
TAF
KANB 272329Z 2800/2824 06004KT P6SM SCT060
      TEMPO 2808/2812 4SM BR SCT010
     FM281500 08007KT P6SM SCT040=



000
FTUS44 KBMX 272329
TAFMGM
TAF
KMGM 272329Z 2800/2824 04004KT P6SM SCT060
     FM281500 11007KT P6SM SCT040=



000
FTUS44 KBMX 272329
TAFTOI
TAF
KTOI 272329Z 2800/2824 05003KT P6SM FEW060
     FM281500 12007KT P6SM SCT040=



000
FTUS44 KBMX 272329
TAFBHM
TAF
KBHM 272329Z 2800/2824 34006KT P6SM SCT060
     FM280100 05003KT P6SM FEW060
     FM281500 10008KT P6SM SCT040=



000
FTUS44 KBMX 272329
TAFTCL
TAF
KTCL 272329Z 2800/2824 03005KT P6SM FEW060
     FM281500 11006KT P6SM SCT040=



000
FTUS44 KBMX 271735
TAFEET
TAF
KEET 271735Z 2718/2818 03004KT P6SM SCT030
     FM280100 00000KT P6SM SKC
     FM281500 11007KT P6SM SKC=



000
FTUS44 KBMX 271735
TAFBHM
TAF
KBHM 271735Z 2718/2818 01007KT P6SM SCT030
     FM280100 06002KT P6SM SKC
     FM281500 11007KT P6SM SKC=



000
FTUS44 KBMX 271735
TAFMGM
TAF
KMGM 271735Z 2718/2818 11006KT P6SM SCT050
     FM280100 04002KT P6SM SKC
     FM281500 10006KT P6SM SKC=



000
FTUS44 KBMX 271735
TAFANB
TAF
KANB 271735Z 2718/2818 05007KT P6SM SCT050
     FM280100 07002KT P6SM SKC
      TEMPO 2808/2812 4SM BR
     FM281500 08007KT P6SM SKC=



000
FTUS44 KBMX 271735
TAFTCL
TAF
KTCL 271735Z 2718/2818 VRB03KT P6SM SKC
     FM280100 02002KT P6SM SKC
     FM281500 11007KT P6SM SKC=



000
FTUS44 KBMX 271735
TAFTOI
TAF
KTOI 271735Z 2718/2818 01007KT P6SM SCT050
     FM280100 00000KT P6SM SKC
     FM281500 11006KT P6SM SKC
      AMD NOT SKED=



000
FTUS44 KBMX 271132
TAFTCL
TAF
KTCL 271132Z 2712/2812 36004KT P6SM SKC
     FM271500 03008KT P6SM SCT060
     FM280100 02002KT P6SM SKC=



000
FTUS44 KBMX 271132
TAFBHM
TAF
KBHM 271132Z 2712/2812 00000KT P6SM SKC
     FM271500 02007KT P6SM SCT060
     FM280100 06002KT P6SM SKC=



000
FTUS44 KBMX 271132
TAFEET
TAF
KEET 271132Z 2712/2812 00000KT P6SM SKC
     FM271500 36005KT P6SM SCT060
     FM280100 00000KT P6SM SKC=



000
FTUS44 KBMX 271132
TAFTOI
TAF
KTOI 271132Z 2712/2812 00000KT P6SM FEW050
     FM271500 04007KT P6SM SCT060
     FM280100 00000KT P6SM SKC
      AMD NOT SKED=



000
FTUS44 KBMX 271132
TAFMGM
TAF
KMGM 271132Z 2712/2812 00000KT P6SM FEW050
     FM271500 04008KT P6SM SCT060
     FM280100 04002KT P6SM SKC=



000
FTUS44 KBMX 271132
TAFANB
TAF
KANB 271132Z 2712/2812 07003KT P6SM SCT050
     FM271500 05007KT P6SM SCT060
     FM280100 07002KT P6SM SKC
      TEMPO 2808/2812 4SM BR=



000
FTUS44 KBMX 271132
TAFANB
TAF
KANB 271132Z 2712/2812 07003KT P6SM SCT050
     FM271500 05007KT P6SM SCT060
     FM280100 07002KT P6SM SKC
      TEMPO 2808/2812 4SM BR=



000
FTUS44 KBMX 271132
TAFEET
TAF
KEET 271132Z 2712/2812 00000KT P6SM SKC
     FM271500 36005KT P6SM SCT060
     FM280100 00000KT P6SM SKC=



000
FTUS44 KBMX 271132
TAFTCL
TAF
KTCL 271132Z 2712/2812 36004KT P6SM SKC
     FM271500 03008KT P6SM SCT060
     FM280100 02002KT P6SM SKC=



000
FTUS44 KBMX 271132
TAFMGM
TAF
KMGM 271132Z 2712/2812 00000KT P6SM FEW050
     FM271500 04008KT P6SM SCT060
     FM280100 04002KT P6SM SKC=



000
FTUS44 KBMX 271132
TAFTOI
TAF
KTOI 271132Z 2712/2812 00000KT P6SM FEW050
     FM271500 04007KT P6SM SCT060
     FM280100 00000KT P6SM SKC
      AMD NOT SKED=



000
FTUS44 KBMX 271132
TAFBHM
TAF
KBHM 271132Z 2712/2812 00000KT P6SM SKC
     FM271500 02007KT P6SM SCT060
     FM280100 06002KT P6SM SKC=



000
FTUS44 KBMX 270520
TAFBHM
TAF
KBHM 270520Z 2706/2806 02003KT P6SM SKC
     FM271500 02006KT P6SM SCT060=



000
FTUS44 KBMX 270520
TAFTCL
TAF
KTCL 270520Z 2706/2806 36004KT P6SM SKC
     FM271500 01005KT P6SM SCT060=



000
FTUS44 KBMX 270520
TAFMGM
TAF
KMGM 270520Z 2706/2806 32005KT P6SM FEW060
     FM271500 04005KT P6SM SCT060=



000
FTUS44 KBMX 270520
TAFEET
TAF
KEET 270520Z 2706/2806 00000KT P6SM SKC
     FM271400 04004KT P6SM SCT060=



000
FTUS44 KBMX 270520
TAFTOI
TAF
KTOI 270520Z 2706/2806 36006KT P6SM FEW060
      TEMPO 2709/2711 4SM BR
     FM271500 04006KT P6SM SCT060
      AMD NOT SKED=



000
FTUS44 KBMX 270520
TAFANB
TAF
KANB 270520Z 2706/2806 36003KT P6SM SKC
     FM271500 06006KT P6SM SCT060=



000
FTUS44 KBMX 270520
TAFANB
TAF
KANB 270520Z 2706/2806 36003KT P6SM SKC
     FM271500 06006KT P6SM SCT060=



000
FTUS44 KBMX 270520
TAFBHM
TAF
KBHM 270520Z 2706/2806 02003KT P6SM SKC
     FM271500 02006KT P6SM SCT060=



000
FTUS44 KBMX 270520
TAFMGM
TAF
KMGM 270520Z 2706/2806 32005KT P6SM FEW060
     FM271500 04005KT P6SM SCT060=



000
FTUS44 KBMX 270520
TAFEET
TAF
KEET 270520Z 2706/2806 00000KT P6SM SKC
     FM271400 04004KT P6SM SCT060=



000
FTUS44 KBMX 270520
TAFTCL
TAF
KTCL 270520Z 2706/2806 36004KT P6SM SKC
     FM271500 01005KT P6SM SCT060=



000
FTUS44 KBMX 270520
TAFTOI
TAF
KTOI 270520Z 2706/2806 36006KT P6SM FEW060
      TEMPO 2709/2711 4SM BR
     FM271500 04006KT P6SM SCT060
      AMD NOT SKED=



000
FTUS44 KBMX 262334
TAFANB
TAF
KANB 262334Z 2700/2724 02003KT P6SM SKC
     FM271400 06006KT P6SM SKC=



000
FTUS44 KBMX 262334
TAFBHM
TAF
KBHM 262334Z 2700/2724 01003KT P6SM SKC
     FM271400 04006KT P6SM SKC=



000
FTUS44 KBMX 262334
TAFEET
TAF
KEET 262334Z 2700/2724 00000KT P6SM SKC
     FM271400 04004KT P6SM SKC=



000
FTUS44 KBMX 262334
TAFMGM
TAF
KMGM 262334Z 2700/2724 33004KT P6SM SKC
     FM271400 04005KT P6SM SKC=



000
FTUS44 KBMX 262334
TAFBHM
TAF
KBHM 262334Z 2700/2724 01003KT P6SM SKC
     FM271400 04006KT P6SM SKC=



000
FTUS44 KBMX 262334
TAFTOI
TAF
KTOI 262334Z 2700/2724 36002KT P6SM SKC
     FM271400 04005KT P6SM SKC=



000
FTUS44 KBMX 262334
TAFANB
TAF
KANB 262334Z 2700/2724 02003KT P6SM SKC
     FM271400 06006KT P6SM SKC=



000
FTUS44 KBMX 262334
TAFTOI
TAF
KTOI 262334Z 2700/2724 36002KT P6SM SKC
     FM271400 04005KT P6SM SKC=



000
FTUS44 KBMX 262334
TAFTCL
TAF
KTCL 262334Z 2700/2724 01004KT P6SM SKC
     FM271400 03006KT P6SM SKC=



000
FTUS44 KBMX 262334
TAFEET
TAF
KEET 262334Z 2700/2724 00000KT P6SM SKC
     FM271400 04004KT P6SM SKC=



000
FTUS44 KBMX 262334
TAFMGM
TAF
KMGM 262334Z 2700/2724 33004KT P6SM SKC
     FM271400 04005KT P6SM SKC=



000
FTUS44 KBMX 262334
TAFTCL
TAF
KTCL 262334Z 2700/2724 01004KT P6SM SKC
     FM271400 03006KT P6SM SKC=



000
FTUS44 KBMX 261729
TAFBHM
TAF
KBHM 261729Z 2618/2718 36008G16KT P6SM SCT050
     FM270000 01003KT P6SM SKC
     FM271400 04006KT P6SM SKC=



000
FTUS44 KBMX 261729
TAFTOI
TAF
KTOI 261729Z 2618/2718 32010KT P6SM SKC
     FM270000 00000KT P6SM SKC
     FM271400 03005KT P6SM SKC=



000
FTUS44 KBMX 261729
TAFMGM
TAF
KMGM 261729Z 2618/2718 34009KT P6SM SKC
     FM270000 32004KT P6SM SKC
     FM271400 04005KT P6SM SKC=



000
FTUS44 KBMX 261729
TAFTCL
TAF
KTCL 261729Z 2618/2718 36010G16KT P6SM SCT050
     FM270000 01003KT P6SM SKC
     FM271400 03006KT P6SM SKC=



000
FTUS44 KBMX 261729
TAFEET
TAF
KEET 261729Z 2618/2718 36008G16KT P6SM SCT050
     FM270000 00000KT P6SM SKC
     FM271400 04005KT P6SM SKC=



000
FTUS44 KBMX 261729
TAFANB
TAF
KANB 261729Z 2618/2718 36010KT P6SM SCT050
     FM270000 00000KT P6SM SKC
     FM271400 05006KT P6SM SKC=



000
FTUS44 KBMX 261729
TAFTOI
TAF
KTOI 261729Z 2618/2718 32010KT P6SM SKC
     FM270000 00000KT P6SM SKC
     FM271400 03005KT P6SM SKC=



000
FTUS44 KBMX 261729
TAFEET
TAF
KEET 261729Z 2618/2718 36008G16KT P6SM SCT050
     FM270000 00000KT P6SM SKC
     FM271400 04005KT P6SM SKC=



000
FTUS44 KBMX 261729
TAFBHM
TAF
KBHM 261729Z 2618/2718 36008G16KT P6SM SCT050
     FM270000 01003KT P6SM SKC
     FM271400 04006KT P6SM SKC=



000
FTUS44 KBMX 261729
TAFTCL
TAF
KTCL 261729Z 2618/2718 36010G16KT P6SM SCT050
     FM270000 01003KT P6SM SKC
     FM271400 03006KT P6SM SKC=



000
FTUS44 KBMX 261729
TAFMGM
TAF
KMGM 261729Z 2618/2718 34009KT P6SM SKC
     FM270000 32004KT P6SM SKC
     FM271400 04005KT P6SM SKC=



000
FTUS44 KBMX 261729
TAFANB
TAF
KANB 261729Z 2618/2718 36010KT P6SM SCT050
     FM270000 00000KT P6SM SKC
     FM271400 05006KT P6SM SKC=



000
FTUS44 KBMX 261403 AAA
TAFTCL
TAF AMD
KTCL 261403Z 2614/2712 36008G16KT P6SM SCT050
     FM270000 01003KT P6SM SKC=



000
FTUS44 KBMX 261402 AAA
TAFEET
TAF AMD
KEET 261402Z 2614/2712 34008G16KT P6SM SCT050
     FM270000 00000KT P6SM SKC=



000
FTUS44 KBMX 261402 AAA
TAFEET
TAF AMD
KEET 261402Z 2614/2712 34008G16KT P6SM SCT050
     FM270000 00000KT P6SM SKC=



000
FTUS44 KBMX 261401 AAA
TAFBHM
TAF AMD
KBHM 261401Z 2614/2712 36008G16KT P6SM SCT050
     FM270000 01003KT P6SM SKC=



000
FTUS44 KBMX 261401 AAA
TAFBHM
TAF AMD
KBHM 261401Z 2614/2712 36008G16KT P6SM SCT050
     FM270000 01003KT P6SM SKC=



000
FTUS44 KBMX 261122
TAFTOI
TAF
KTOI 261122Z 2612/2712 32003KT P6SM SKC
     FM261500 32009KT P6SM SKC
     FM270000 00000KT P6SM SKC=



000
FTUS44 KBMX 261122
TAFEET
TAF
KEET 261122Z 2612/2712 00000KT P6SM SKC
     FM261500 34008G16KT P6SM SCT050
     FM270000 00000KT P6SM SKC=



000
FTUS44 KBMX 261122
TAFMGM
TAF
KMGM 261122Z 2612/2712 32004KT P6SM SKC
     FM261500 34009KT P6SM SKC
     FM270000 32004KT P6SM SKC=



000
FTUS44 KBMX 261122
TAFANB
TAF
KANB 261122Z 2612/2712 VRB03KT P6SM SKC
     FM261500 36009KT P6SM SCT050
     FM270000 00000KT P6SM SKC=



000
FTUS44 KBMX 261122
TAFTCL
TAF
KTCL 261122Z 2612/2712 00000KT P6SM SKC
     FM261500 36008G16KT P6SM SCT050
     FM270000 01003KT P6SM SKC=



000
FTUS44 KBMX 261122
TAFBHM
TAF
KBHM 261122Z 2612/2712 35003KT P6SM SKC
     FM261500 36008G16KT P6SM SCT050
     FM270000 01003KT P6SM SKC=



000
FTUS44 KBMX 261122
TAFTOI
TAF
KTOI 261122Z 2612/2712 32003KT P6SM SKC
     FM261500 32009KT P6SM SKC
     FM270000 00000KT P6SM SKC=



000
FTUS44 KBMX 261122
TAFEET
TAF
KEET 261122Z 2612/2712 00000KT P6SM SKC
     FM261500 34008G16KT P6SM SCT050
     FM270000 00000KT P6SM SKC=



000
FTUS44 KBMX 261122
TAFMGM
TAF
KMGM 261122Z 2612/2712 32004KT P6SM SKC
     FM261500 34009KT P6SM SKC
     FM270000 32004KT P6SM SKC=



000
FTUS44 KBMX 261122
TAFBHM
TAF
KBHM 261122Z 2612/2712 35003KT P6SM SKC
     FM261500 36008G16KT P6SM SCT050
     FM270000 01003KT P6SM SKC=



000
FTUS44 KBMX 261122
TAFTCL
TAF
KTCL 261122Z 2612/2712 00000KT P6SM SKC
     FM261500 36008G16KT P6SM SCT050
     FM270000 01003KT P6SM SKC=



000
FTUS44 KBMX 261122
TAFANB
TAF
KANB 261122Z 2612/2712 VRB03KT P6SM SKC
     FM261500 36009KT P6SM SCT050
     FM270000 00000KT P6SM SKC=



000
FTUS44 KBMX 260520
TAFMGM
TAF
KMGM 260520Z 2606/2706 32004KT P6SM SKC
     FM261500 34009KT P6SM SKC
     FM270000 32004KT P6SM SKC=



000
FTUS44 KBMX 260520
TAFTOI
TAF
KTOI 260520Z 2606/2706 32003KT P6SM SKC
     FM261500 32009KT P6SM SKC
     FM270000 00000KT P6SM SKC=



000
FTUS44 KBMX 260520
TAFEET
TAF
KEET 260520Z 2606/2706 00000KT P6SM SKC
     FM261500 34008KT P6SM SCT050
     FM270000 00000KT P6SM SKC=



000
FTUS44 KBMX 260520
TAFTCL
TAF
KTCL 260520Z 2606/2706 00000KT P6SM SKC
     FM261500 36009KT P6SM SCT050
     FM270000 01003KT P6SM SKC=



000
FTUS44 KBMX 260520
TAFBHM
TAF
KBHM 260520Z 2606/2706 35003KT P6SM SKC
     FM261500 36010KT P6SM SCT050
     FM270000 01003KT P6SM SKC=



000
FTUS44 KBMX 260520
TAFBHM
TAF
KBHM 260520Z 2606/2706 35003KT P6SM SKC
     FM261500 36010KT P6SM SCT050
     FM270000 01003KT P6SM SKC=



000
FTUS44 KBMX 260520
TAFMGM
TAF
KMGM 260520Z 2606/2706 32004KT P6SM SKC
     FM261500 34009KT P6SM SKC
     FM270000 32004KT P6SM SKC=



000
FTUS44 KBMX 260520
TAFANB
TAF
KANB 260520Z 2606/2706 VRB03KT P6SM SKC
     FM261500 36009KT P6SM SCT050
     FM270000 00000KT P6SM SKC=



000
FTUS44 KBMX 260520
TAFANB
TAF
KANB 260520Z 2606/2706 VRB03KT P6SM SKC
     FM261500 36009KT P6SM SCT050
     FM270000 00000KT P6SM SKC=



000
FTUS44 KBMX 260520
TAFTOI
TAF
KTOI 260520Z 2606/2706 32003KT P6SM SKC
     FM261500 32009KT P6SM SKC
     FM270000 00000KT P6SM SKC=



000
FTUS44 KBMX 260520
TAFEET
TAF
KEET 260520Z 2606/2706 00000KT P6SM SKC
     FM261500 34008KT P6SM SCT050
     FM270000 00000KT P6SM SKC=



000
FTUS44 KBMX 260520
TAFTCL
TAF
KTCL 260520Z 2606/2706 00000KT P6SM SKC
     FM261500 36009KT P6SM SCT050
     FM270000 01003KT P6SM SKC=



000
FTUS44 KBMX 252323
TAFTCL
TAF
KTCL 252323Z 2600/2624 34010KT P6SM SKC
     FM260100 35004KT P6SM SKC
     FM261500 36009KT P6SM SCT050=



000
FTUS44 KBMX 252323
TAFMGM
TAF
KMGM 252323Z 2600/2624 34009KT P6SM SKC
     FM260100 34004KT P6SM SKC
     FM261500 35009KT P6SM SKC=



000
FTUS44 KBMX 252323
TAFBHM
TAF
KBHM 252323Z 2600/2624 34010KT P6SM SKC
     FM260100 35005KT P6SM SKC
     FM261500 36010KT P6SM SCT050=



000
FTUS44 KBMX 252323
TAFANB
TAF
KANB 252323Z 2600/2624 35009KT P6SM SKC
     FM260100 34003KT P6SM SKC
     FM261500 36009KT P6SM SCT050=



000
FTUS44 KBMX 252323
TAFTOI
TAF
KTOI 252323Z 2600/2624 36009KT P6SM SKC
     FM260100 35003KT P6SM SKC
     FM261500 34010KT P6SM SKC=



000
FTUS44 KBMX 252323
TAFMGM
TAF
KMGM 252323Z 2600/2624 34009KT P6SM SKC
     FM260100 34004KT P6SM SKC
     FM261500 35009KT P6SM SKC=



000
FTUS44 KBMX 252323
TAFTOI
TAF
KTOI 252323Z 2600/2624 36009KT P6SM SKC
     FM260100 35003KT P6SM SKC
     FM261500 34010KT P6SM SKC=



000
FTUS44 KBMX 252323
TAFANB
TAF
KANB 252323Z 2600/2624 35009KT P6SM SKC
     FM260100 34003KT P6SM SKC
     FM261500 36009KT P6SM SCT050=



000
FTUS44 KBMX 252323
TAFBHM
TAF
KBHM 252323Z 2600/2624 34010KT P6SM SKC
     FM260100 35005KT P6SM SKC
     FM261500 36010KT P6SM SCT050=



000
FTUS44 KBMX 252323
TAFEET
TAF
KEET 252323Z 2600/2624 33004KT P6SM SKC
     FM261500 36010KT P6SM SCT050=



000
FTUS44 KBMX 252323
TAFTCL
TAF
KTCL 252323Z 2600/2624 34010KT P6SM SKC
     FM260100 35004KT P6SM SKC
     FM261500 36009KT P6SM SCT050=



000
FTUS44 KBMX 252323
TAFEET
TAF
KEET 252323Z 2600/2624 33004KT P6SM SKC
     FM261500 36010KT P6SM SCT050=



    US Dept of Commerce
    National Oceanic and Atmospheric Administration
    National Weather Service
    1325 East West Highway
    Silver Spring, MD 20910
    Page Author: NWS Internet Services Team
Disclaimer
Information Quality
Credits
Glossary
Privacy Policy
Freedom of Information Act (FOIA)
About Us
Career Opportunities